createdAt,value
2022-10-26T00:02:33.248Z,21.33
2022-10-26T00:05:37.565Z,17.57
2022-10-26T00:08:43.406Z,31.97
2022-10-26T00:11:46.957Z,35.30
2022-10-26T00:14:50.461Z,33.67
2022-10-26T00:17:54.085Z,25.93
2022-10-26T00:21:03.729Z,29.63
2022-10-26T00:24:08.910Z,26.13
2022-10-26T00:27:12.488Z,29.50
2022-10-26T00:30:16.494Z,22.43
2022-10-26T00:33:20.179Z,20.17
2022-10-26T00:36:24.433Z,28.60
2022-10-26T00:39:29.481Z,18.87
2022-10-26T00:42:32.991Z,20.70
2022-10-26T00:45:36.662Z,23.90
2022-10-26T00:48:44.467Z,19.27
2022-10-26T00:51:52.131Z,20.97
2022-10-26T00:54:57.717Z,18.37
2022-10-26T00:58:04.955Z,23.10
2022-10-26T01:01:08.728Z,17.60
2022-10-26T01:04:14.063Z,24.47
2022-10-26T01:07:18.203Z,16.10
2022-10-26T01:10:24.546Z,20.50
2022-10-26T01:13:31.469Z,24.43
2022-10-26T01:16:56.735Z,17.53
2022-10-26T01:20:33.580Z,23.80
2022-10-26T01:23:48.252Z,13.53
2022-10-26T01:27:06.759Z,24.53
2022-10-26T01:30:33.716Z,20.10
2022-10-26T01:33:44.476Z,16.40
2022-10-26T01:36:56.413Z,21.33
2022-10-26T01:40:06.865Z,20.67
2022-10-26T01:43:14.837Z,19.40
2022-10-26T01:46:23.115Z,17.73
2022-10-26T01:49:30.176Z,15.80
2022-10-26T01:52:34.198Z,13.20
2022-10-26T01:55:50.025Z,12.67
2022-10-26T01:59:15.302Z,16.20
2022-10-26T02:02:40.443Z,20.87
2022-10-26T02:05:59.462Z,19.30
2022-10-26T02:09:18.233Z,16.23
2022-10-26T02:12:31.264Z,15.03
2022-10-26T02:15:40.786Z,20.33
2022-10-26T02:18:53.399Z,17.07
2022-10-26T02:22:06.177Z,16.03
2022-10-26T02:25:18.161Z,18.50
2022-10-26T02:28:30.585Z,15.03
2022-10-26T02:31:37.782Z,14.57
2022-10-26T02:34:47.456Z,13.20
2022-10-26T02:37:54.387Z,13.23
2022-10-26T02:40:59.400Z,15.00
2022-10-26T02:44:09.859Z,19.57
2022-10-26T02:47:13.978Z,16.03
2022-10-26T02:50:20.942Z,12.27
2022-10-26T02:53:30.396Z,16.93
2022-10-26T02:56:41.725Z,20.43
2022-10-26T02:59:48.830Z,18.17
2022-10-26T03:02:57.342Z,17.83
2022-10-26T03:06:02.626Z,16.23
2022-10-26T03:09:06.341Z,19.20
2022-10-26T03:12:09.925Z,13.90
2022-10-26T03:15:13.843Z,17.47
2022-10-26T03:18:17.505Z,18.40
2022-10-26T03:21:22.717Z,19.63
2022-10-26T03:24:26.597Z,15.77
2022-10-26T03:27:30.172Z,21.10
2022-10-26T03:30:34.246Z,13.53
2022-10-26T03:36:48.101Z,14.70
2022-10-26T03:39:54.056Z,14.80
2022-10-26T03:42:57.722Z,12.17
2022-10-26T03:46:01.465Z,15.13
2022-10-26T03:49:08.106Z,19.70
2022-10-26T03:52:13.375Z,18.47
2022-10-26T03:55:17.726Z,16.00
2022-10-26T03:58:21.483Z,18.87
2022-10-26T04:01:25.340Z,13.77
2022-10-26T04:04:29.372Z,13.07
2022-10-26T04:07:34.605Z,20.67
2022-10-26T04:10:38.486Z,13.73
2022-10-26T04:13:42.197Z,18.53
2022-10-26T04:16:45.873Z,15.53
2022-10-26T04:19:49.422Z,11.10
2022-10-26T04:23:01.024Z,13.40
2022-10-26T04:26:06.485Z,19.90
2022-10-26T04:29:10.276Z,21.17
2022-10-26T04:32:14.056Z,20.03
2022-10-26T04:35:17.985Z,20.13
2022-10-26T04:38:23.132Z,12.13
2022-10-26T04:41:26.962Z,17.43
2022-10-26T04:44:30.765Z,14.23
2022-10-26T04:47:34.363Z,22.57
2022-10-26T04:50:38.583Z,15.33
2022-10-26T04:53:43.564Z,14.30
2022-10-26T04:59:55.985Z,16.00
2022-10-26T05:03:03.168Z,12.97
2022-10-26T05:06:07.167Z,14.73
2022-10-26T05:09:12.287Z,19.77
2022-10-26T05:12:15.963Z,14.27
2022-10-26T05:15:19.655Z,21.23
2022-10-26T05:18:23.419Z,18.40
2022-10-26T05:21:27.256Z,14.77
2022-10-26T05:24:32.283Z,16.90
2022-10-26T05:27:36.085Z,18.13
2022-10-26T05:30:39.726Z,19.03
2022-10-26T05:33:43.422Z,17.67
2022-10-26T05:36:47.059Z,24.60
2022-10-26T05:39:52.266Z,18.87
2022-10-26T05:43:01.392Z,20.93
2022-10-26T05:46:05.233Z,16.00
2022-10-26T05:49:08.937Z,22.00
2022-10-26T05:52:12.696Z,17.40
2022-10-26T05:55:19.657Z,16.60
2022-10-26T05:58:23.922Z,13.97
2022-10-26T06:01:35.896Z,18.37
2022-10-26T06:04:48.164Z,23.93
2022-10-26T06:07:52.672Z,19.60
2022-10-26T06:10:59.642Z,18.13
2022-10-26T06:14:04.006Z,17.20
2022-10-26T06:17:27.676Z,18.23
2022-10-26T06:20:46.503Z,20.60
2022-10-26T06:23:57.342Z,16.23
2022-10-26T06:27:10.331Z,18.40
2022-10-26T06:30:14.505Z,18.50
2022-10-26T06:33:28.751Z,21.43
2022-10-26T06:36:34.702Z,13.80
2022-10-26T06:39:43.823Z,17.17
2022-10-26T06:42:49.786Z,17.77
2022-10-26T06:46:01.530Z,12.20
2022-10-26T06:49:14.012Z,14.27
2022-10-26T06:52:22.776Z,16.10
2022-10-26T06:55:27.637Z,17.17
2022-10-26T06:58:36.663Z,17.50
2022-10-26T07:01:40.359Z,10.35
2022-10-26T07:04:44.673Z,14.70
2022-10-26T07:07:49.962Z,12.02
2022-10-26T07:10:53.864Z,14.23
2022-10-26T07:13:59.023Z,15.75
2022-10-26T07:17:02.722Z,14.60
2022-10-26T07:20:07.557Z,18.02
2022-10-26T07:23:12.395Z,15.45
2022-10-26T07:26:16.154Z,19.83
2022-10-26T07:29:21.273Z,26.70
2022-10-26T07:32:25.176Z,23.65
2022-10-26T07:35:30.702Z,16.73
2022-10-26T07:38:34.383Z,17.98
2022-10-26T07:41:38.236Z,21.13
2022-10-26T07:44:43.622Z,8.70
2022-10-26T07:47:47.566Z,16.77
2022-10-26T07:50:51.266Z,11.27
2022-10-26T07:53:55.174Z,13.32
2022-10-26T07:56:59.706Z,11.82
2022-10-26T08:00:05.979Z,10.57
2022-10-26T08:03:10.017Z,16.10
2022-10-26T08:06:14.938Z,7.00
2022-10-26T08:09:21.056Z,13.00
2022-10-26T08:12:24.895Z,10.98
2022-10-26T08:15:31.995Z,11.13
2022-10-26T08:18:35.636Z,13.05
2022-10-26T08:21:40.493Z,12.75
2022-10-26T08:24:46.978Z,10.90
2022-10-26T08:27:50.904Z,9.88
2022-10-26T08:30:56.382Z,10.32
2022-10-26T08:34:00.608Z,13.88
2022-10-26T08:37:04.508Z,11.60
2022-10-26T08:40:11.747Z,9.95
2022-10-26T08:43:21.206Z,13.10
2022-10-26T08:46:32.118Z,10.07
2022-10-26T08:49:44.893Z,11.85
2022-10-26T08:52:53.313Z,8.68
2022-10-26T08:56:01.266Z,7.70
2022-10-26T08:59:13.822Z,11.88
2022-10-26T09:02:19.422Z,11.65
2022-10-26T09:05:33.390Z,8.32
2022-10-26T09:08:52.482Z,6.88
2022-10-26T09:12:07.133Z,12.82
2022-10-26T09:15:20.234Z,15.90
2022-10-26T09:18:38.848Z,12.07
2022-10-26T09:21:49.917Z,9.90
2022-10-26T09:24:56.558Z,8.70
2022-10-26T09:28:03.383Z,9.60
2022-10-26T09:31:07.225Z,6.63
2022-10-26T09:34:22.246Z,6.75
2022-10-26T09:37:29.922Z,5.97
2022-10-26T09:40:38.203Z,7.47
2022-10-26T09:43:50.384Z,9.73
2022-10-26T09:47:00.093Z,7.32
2022-10-26T09:50:17.496Z,5.53
2022-10-26T09:53:21.283Z,4.47
2022-10-26T09:56:26.535Z,6.57
2022-10-26T09:59:34.816Z,11.68
2022-10-26T10:02:44.330Z,9.50
2022-10-26T10:05:52.121Z,7.72
2022-10-26T10:09:10.687Z,6.95
2022-10-26T10:12:23.888Z,9.98
2022-10-26T10:15:27.922Z,10.30
2022-10-26T10:18:31.805Z,4.75
2022-10-26T10:21:40.572Z,6.38
2022-10-26T10:24:54.202Z,9.90
2022-10-26T10:27:57.946Z,5.15
2022-10-26T10:31:03.425Z,12.48
2022-10-26T10:34:18.155Z,4.25
2022-10-26T10:37:28.952Z,3.10
2022-10-26T10:40:33.406Z,8.00
2022-10-26T10:43:37.501Z,7.68
2022-10-26T10:46:41.243Z,9.48
2022-10-26T10:49:54.702Z,3.17
2022-10-26T10:53:21.933Z,4.18
2022-10-26T10:56:34.506Z,5.10
2022-10-26T10:59:49.225Z,5.28
2022-10-26T11:03:34.755Z,5.15
2022-10-26T11:06:41.422Z,5.78
2022-10-26T11:09:49.989Z,7.43
2022-10-26T11:12:59.571Z,6.35
2022-10-26T11:16:05.883Z,3.65
2022-10-26T11:19:19.964Z,12.38
2022-10-26T11:22:27.902Z,36.25
2022-10-26T11:25:38.562Z,6.03
2022-10-26T11:28:50.210Z,6.13
2022-10-26T11:31:59.212Z,5.68
2022-10-26T11:35:13.525Z,6.93
2022-10-26T11:38:38.782Z,2.35
2022-10-26T11:41:54.994Z,4.13
2022-10-26T11:45:05.666Z,3.42
2022-10-26T11:48:17.342Z,4.30
2022-10-26T11:51:34.733Z,4.78
2022-10-26T11:54:45.225Z,3.70
2022-10-26T11:57:53.000Z,3.65
2022-10-26T12:01:02.236Z,11.10
2022-10-26T12:04:06.211Z,8.90
2022-10-26T12:07:15.035Z,5.85
2022-10-26T12:10:27.596Z,7.25
2022-10-26T12:13:39.383Z,10.65
2022-10-26T12:16:52.563Z,6.13
2022-10-26T12:20:02.657Z,6.30
2022-10-26T12:23:07.875Z,5.45
2022-10-26T12:26:50.945Z,8.80
2022-10-26T12:30:17.148Z,11.98
2022-10-26T12:33:30.875Z,7.40
2022-10-26T12:36:50.765Z,6.57
2022-10-26T12:39:54.475Z,7.82
2022-10-26T12:42:58.882Z,7.75
2022-10-26T12:46:42.392Z,5.38
2022-10-26T12:50:02.815Z,7.10
2022-10-26T12:53:12.136Z,5.82
2022-10-26T12:56:21.695Z,10.30
2022-10-26T12:59:35.206Z,11.00
2022-10-26T13:02:53.633Z,8.35
2022-10-26T13:06:24.515Z,5.65
2022-10-26T13:09:33.237Z,12.20
2022-10-26T13:12:47.329Z,12.85
2022-10-26T13:15:55.862Z,8.00
2022-10-26T13:19:00.962Z,5.82
2022-10-26T13:22:06.271Z,7.43
2022-10-26T13:25:23.412Z,7.85
2022-10-26T13:28:44.003Z,5.18
2022-10-26T13:31:58.156Z,6.68
2022-10-26T13:35:03.912Z,6.03
2022-10-26T13:38:12.444Z,6.60
2022-10-26T13:41:24.277Z,5.80
2022-10-26T13:44:32.592Z,4.72
2022-10-26T13:47:44.937Z,8.38
2022-10-26T13:50:53.081Z,7.65
2022-10-26T13:54:03.346Z,4.60
2022-10-26T13:57:20.804Z,7.43
2022-10-26T14:00:24.842Z,5.47
2022-10-26T14:03:29.168Z,7.18
2022-10-26T14:06:35.906Z,7.88
2022-10-26T14:09:41.203Z,5.38
2022-10-26T14:12:45.111Z,6.10
2022-10-26T14:15:49.245Z,6.07
2022-10-26T14:18:52.962Z,7.55
2022-10-26T14:21:57.563Z,5.80
2022-10-26T14:25:02.802Z,6.05
2022-10-26T14:28:22.906Z,6.82
2022-10-26T14:31:29.507Z,9.60
2022-10-26T14:34:33.406Z,7.65
2022-10-26T14:37:41.935Z,8.85
2022-10-26T14:40:47.767Z,7.10
2022-10-26T14:43:51.955Z,5.97
2022-10-26T14:46:55.896Z,12.65
2022-10-26T14:53:16.557Z,7.75
2022-10-26T14:56:26.174Z,5.72
2022-10-26T14:59:32.842Z,7.22
2022-10-26T15:02:36.836Z,11.73
2022-10-26T15:05:40.633Z,7.63
2022-10-26T15:08:56.832Z,6.93
2022-10-26T15:12:04.242Z,7.07
2022-10-26T15:18:29.147Z,11.73
2022-10-26T15:21:40.285Z,6.63
2022-10-26T15:24:43.996Z,9.05
2022-10-26T15:27:49.636Z,8.73
2022-10-26T15:31:06.353Z,11.82
2022-10-26T15:34:15.832Z,7.43
2022-10-26T15:37:19.657Z,7.15
2022-10-26T15:40:23.786Z,4.53
2022-10-26T15:43:29.142Z,5.68
2022-10-26T15:46:36.716Z,8.82
2022-10-26T15:49:40.467Z,8.68
2022-10-26T15:52:46.793Z,6.45
2022-10-26T15:55:54.203Z,11.18
2022-10-26T15:58:59.825Z,6.47
2022-10-26T16:02:03.735Z,8.68
2022-10-26T16:05:08.626Z,5.72
2022-10-26T16:08:18.014Z,11.82
2022-10-26T16:11:23.595Z,10.55
2022-10-26T16:14:33.380Z,6.72
2022-10-26T16:17:37.376Z,5.45
2022-10-26T16:20:41.509Z,4.03
2022-10-26T16:23:50.493Z,6.95
2022-10-26T16:26:54.303Z,6.43
2022-10-26T16:29:59.447Z,7.38
2022-10-26T16:33:03.195Z,6.88
2022-10-26T16:36:08.024Z,9.32
2022-10-26T16:39:13.743Z,6.88
2022-10-26T16:42:17.591Z,7.43
2022-10-26T16:45:22.722Z,9.50
2022-10-26T16:48:26.956Z,5.15
2022-10-26T16:51:30.646Z,10.32
2022-10-26T16:54:34.446Z,9.77
2022-10-26T16:57:38.765Z,9.75
2022-10-26T17:00:44.198Z,11.88
2022-10-26T17:03:48.504Z,14.38
2022-10-26T17:06:52.537Z,14.63
2022-10-26T17:09:56.497Z,14.15
2022-10-26T17:13:00.357Z,17.20
2022-10-26T17:16:07.003Z,10.75
2022-10-26T17:19:12.995Z,17.17
2022-10-26T17:22:16.756Z,21.65
2022-10-26T17:25:20.503Z,14.43
2022-10-26T17:28:24.626Z,13.10
2022-10-26T17:31:32.652Z,14.70
2022-10-26T17:34:36.456Z,13.93
2022-10-26T17:37:41.095Z,13.18
2022-10-26T17:40:44.842Z,13.05
2022-10-26T17:43:49.862Z,13.55
2022-10-26T17:46:55.152Z,20.42
2022-10-26T17:49:58.855Z,13.25
2022-10-26T17:53:02.623Z,16.38
2022-10-26T17:56:08.622Z,16.80
2022-10-26T17:59:13.642Z,24.17
2022-10-26T18:02:18.911Z,18.13
2022-10-26T18:05:22.636Z,17.60
2022-10-26T18:08:26.447Z,17.45
2022-10-26T18:14:38.776Z,22.73
2022-10-26T18:17:45.308Z,21.42
2022-10-26T18:20:49.151Z,24.92
2022-10-26T18:23:54.222Z,22.02
2022-10-26T18:26:58.342Z,24.27
2022-10-26T18:30:02.153Z,23.85
2022-10-26T18:33:07.363Z,32.78
2022-10-26T18:36:12.995Z,30.30
2022-10-26T18:39:16.767Z,31.83
2022-10-26T18:42:20.516Z,32.70
2022-10-26T18:45:24.188Z,29.33
2022-10-26T18:48:29.413Z,29.70
2022-10-26T18:51:35.522Z,40.08
2022-10-26T18:54:39.371Z,42.55
2022-10-26T18:57:43.066Z,35.67
2022-10-26T19:00:46.998Z,36.08
2022-10-26T19:03:56.325Z,34.38
2022-10-26T19:07:01.763Z,32.20
2022-10-26T19:10:06.096Z,31.83
2022-10-26T19:13:09.804Z,27.73
2022-10-26T19:16:26.953Z,23.55
2022-10-26T19:19:42.342Z,22.50
2022-10-26T19:22:46.101Z,24.60
2022-10-26T19:25:56.716Z,20.30
2022-10-26T19:29:01.976Z,24.35
2022-10-26T19:32:06.075Z,20.75
2022-10-26T19:35:11.704Z,22.67
2022-10-26T19:38:15.555Z,26.88
2022-10-26T19:41:19.646Z,22.52
2022-10-26T19:44:25.564Z,17.77
2022-10-26T19:47:29.536Z,23.98
2022-10-26T19:50:34.703Z,26.08
2022-10-26T19:53:38.303Z,18.98
2022-10-26T19:56:41.974Z,17.10
2022-10-26T19:59:45.744Z,22.35
2022-10-26T20:02:49.891Z,24.02
2022-10-26T20:05:57.136Z,20.52
2022-10-26T20:09:02.640Z,17.77
2022-10-26T20:12:07.511Z,21.57
2022-10-26T20:15:11.492Z,20.27
2022-10-26T20:18:15.506Z,20.30
2022-10-26T20:21:21.636Z,21.52
2022-10-26T20:24:28.617Z,23.53
2022-10-26T20:27:32.355Z,28.33
2022-10-26T20:30:37.962Z,23.33
2022-10-26T20:33:41.666Z,39.35
2022-10-26T20:36:46.802Z,36.20
2022-10-26T20:39:53.443Z,25.63
2022-10-26T20:42:57.789Z,29.40
2022-10-26T20:46:02.026Z,23.80
2022-10-26T20:49:06.103Z,22.53
2022-10-26T20:52:21.263Z,16.77
2022-10-26T20:55:32.583Z,19.20
2022-10-26T20:58:41.636Z,14.63
2022-10-26T21:01:45.456Z,12.80
2022-10-26T21:04:49.386Z,12.43
2022-10-26T21:11:02.974Z,9.80
2022-10-26T21:14:07.307Z,9.50
2022-10-26T21:17:12.102Z,24.23
2022-10-26T21:20:16.359Z,14.67
2022-10-26T21:23:22.135Z,11.93
2022-10-26T21:26:26.176Z,10.37
2022-10-26T21:29:30.448Z,9.87
2022-10-26T21:32:34.685Z,11.07
2022-10-26T21:35:38.863Z,10.30
2022-10-26T21:38:46.018Z,10.03
2022-10-26T21:41:50.260Z,8.77
2022-10-26T21:44:54.429Z,8.53
2022-10-26T21:47:58.799Z,10.33
2022-10-26T21:51:03.428Z,11.90
2022-10-26T21:54:09.321Z,11.13
2022-10-26T21:57:13.544Z,12.03
2022-10-26T22:03:50.267Z,10.17
2022-10-26T22:06:58.047Z,9.67
2022-10-26T22:10:11.178Z,12.90
2022-10-26T22:13:16.279Z,18.87
2022-10-26T22:16:22.794Z,10.60
2022-10-26T22:19:27.101Z,11.33
2022-10-26T22:22:31.533Z,18.20
2022-10-26T22:25:37.192Z,12.97
2022-10-26T22:28:43.585Z,11.50
2022-10-26T22:31:47.786Z,10.57
2022-10-26T22:35:00.304Z,14.53
2022-10-26T22:38:14.902Z,11.63
2022-10-26T22:41:21.611Z,9.30
2022-10-26T22:44:26.001Z,12.00
2022-10-26T22:47:30.492Z,12.00
2022-10-26T22:50:34.680Z,12.13
2022-10-26T22:53:39.072Z,11.43
2022-10-26T22:56:44.801Z,10.73
2022-10-26T22:59:48.989Z,13.90
2022-10-26T23:02:53.131Z,10.97
2022-10-26T23:05:57.723Z,12.17
2022-10-26T23:09:01.962Z,11.30
2022-10-26T23:12:07.822Z,14.13
2022-10-26T23:15:12.610Z,8.63
2022-10-26T23:18:16.702Z,13.27
2022-10-26T23:21:21.380Z,18.20
2022-10-26T23:24:25.563Z,13.57
2022-10-26T23:27:30.742Z,17.37
2022-10-26T23:30:34.567Z,14.70
2022-10-26T23:33:38.203Z,13.70
2022-10-26T23:36:41.897Z,15.53
2022-10-26T23:39:45.603Z,18.20
2022-10-26T23:42:50.901Z,14.00
2022-10-26T23:45:55.436Z,14.07
2022-10-26T23:48:59.059Z,13.33
2022-10-26T23:52:02.897Z,12.80
2022-10-26T23:55:07.278Z,12.60
2022-10-26T23:58:15.163Z,15.80
